sensor_id;sensor_type;location;lat;lon;timestamp;temperature;humidity
50067;DHT22;35952;52.524;13.340;2023-05-24T00:01:50;12.30;99.90
50067;DHT22;35952;52.524;13.340;2023-05-24T00:04:15;12.30;99.90
50067;DHT22;35952;52.524;13.340;2023-05-24T00:06:41;12.30;99.90
50067;DHT22;35952;52.524;13.340;2023-05-24T00:09:09;12.20;99.90
50067;DHT22;35952;52.524;13.340;2023-05-24T00:11:35;12.30;99.90
50067;DHT22;35952;52.524;13.340;2023-05-24T00:14:01;12.30;99.90
50067;DHT22;35952;52.524;13.340;2023-05-24T00:16:26;12.10;99.90
50067;DHT22;35952;52.524;13.340;2023-05-24T00:18:52;12.30;99.90
50067;DHT22;35952;52.524;13.340;2023-05-24T00:21:19;12.20;99.90
50067;DHT22;35952;52.524;13.340;2023-05-24T00:23:45;12.30;99.90
50067;DHT22;35952;52.524;13.340;2023-05-24T00:26:10;12.30;99.90
50067;DHT22;35952;52.524;13.340;2023-05-24T00:28:36;12.30;99.90
50067;DHT22;35952;52.524;13.340;2023-05-24T00:31:01;12.30;99.90
50067;DHT22;35952;52.524;13.340;2023-05-24T00:33:27;12.20;99.90
50067;DHT22;35952;52.524;13.340;2023-05-24T00:35:54;12.30;99.90
50067;DHT22;35952;52.524;13.340;2023-05-24T00:38:24;12.30;99.90
50067;DHT22;35952;52.524;13.340;2023-05-24T00:40:49;12.20;99.90
50067;DHT22;35952;52.524;13.340;2023-05-24T00:43:15;12.30;99.90
50067;DHT22;35952;52.524;13.340;2023-05-24T00:45:41;12.40;99.90
50067;DHT22;35952;52.524;13.340;2023-05-24T00:48:07;12.40;99.90
50067;DHT22;35952;52.524;13.340;2023-05-24T00:50:33;12.30;99.90
50067;DHT22;35952;52.524;13.340;2023-05-24T00:53:01;12.30;99.90
50067;DHT22;35952;52.524;13.340;2023-05-24T00:55:27;12.20;99.90
50067;DHT22;35952;52.524;13.340;2023-05-24T00:57:54;12.40;99.90
50067;DHT22;35952;52.524;13.340;2023-05-24T01:00:21;12.40;99.90
50067;DHT22;35952;52.524;13.340;2023-05-24T01:02:47;12.40;99.90
50067;DHT22;35952;52.524;13.340;2023-05-24T01:05:13;12.40;99.90
50067;DHT22;35952;52.524;13.340;2023-05-24T01:08:14;12.30;99.90
50067;DHT22;35952;52.524;13.340;2023-05-24T01:10:55;12.30;99.90
50067;DHT22;35952;52.524;13.340;2023-05-24T01:16:00;12.40;99.90
50067;DHT22;35952;52.524;13.340;2023-05-24T01:18:37;12.40;99.90
50067;DHT22;35952;52.524;13.340;2023-05-24T01:23:51;12.40;99.90
50067;DHT22;35952;52.524;13.340;2023-05-24T01:26:29;12.30;99.90
50067;DHT22;35952;52.524;13.340;2023-05-24T01:28:56;12.40;99.90
50067;DHT22;35952;52.524;13.340;2023-05-24T01:31:22;12.40;99.90
50067;DHT22;35952;52.524;13.340;2023-05-24T01:33:47;12.30;99.90
50067;DHT22;35952;52.524;13.340;2023-05-24T01:36:13;12.30;99.90
50067;DHT22;35952;52.524;13.340;2023-05-24T01:38:39;12.30;99.90
50067;DHT22;35952;52.524;13.340;2023-05-24T01:44:34;12.40;99.90
50067;DHT22;35952;52.524;13.340;2023-05-24T01:47:24;12.40;99.90
50067;DHT22;35952;52.524;13.340;2023-05-24T01:49:53;12.30;99.90
50067;DHT22;35952;52.524;13.340;2023-05-24T01:52:23;12.30;99.90
50067;DHT22;35952;52.524;13.340;2023-05-24T01:54:52;12.30;99.90
50067;DHT22;35952;52.524;13.340;2023-05-24T01:57:18;12.30;99.90
50067;DHT22;35952;52.524;13.340;2023-05-24T01:59:46;12.40;99.90
50067;DHT22;35952;52.524;13.340;2023-05-24T02:02:12;12.30;99.90
50067;DHT22;35952;52.524;13.340;2023-05-24T02:04:37;12.30;99.90
50067;DHT22;35952;52.524;13.340;2023-05-24T02:07:03;12.30;99.90
50067;DHT22;35952;52.524;13.340;2023-05-24T02:09:29;12.30;99.90
50067;DHT22;35952;52.524;13.340;2023-05-24T02:11:54;12.30;99.90
50067;DHT22;35952;52.524;13.340;2023-05-24T02:14:20;12.20;99.90
50067;DHT22;35952;52.524;13.340;2023-05-24T02:16:46;12.20;99.90
50067;DHT22;35952;52.524;13.340;2023-05-24T02:19:12;12.30;99.90
50067;DHT22;35952;52.524;13.340;2023-05-24T02:21:38;12.30;99.90
50067;DHT22;35952;52.524;13.340;2023-05-24T02:24:04;12.30;99.90
50067;DHT22;35952;52.524;13.340;2023-05-24T02:26:31;12.30;99.90
50067;DHT22;35952;52.524;13.340;2023-05-24T02:28:56;12.20;99.90
50067;DHT22;35952;52.524;13.340;2023-05-24T02:31:22;12.20;99.90
50067;DHT22;35952;52.524;13.340;2023-05-24T02:33:47;12.20;99.90
50067;DHT22;35952;52.524;13.340;2023-05-24T02:36:13;12.10;99.90
50067;DHT22;35952;52.524;13.340;2023-05-24T02:38:38;12.10;99.90
50067;DHT22;35952;52.524;13.340;2023-05-24T02:41:04;12.20;99.90
50067;DHT22;35952;52.524;13.340;2023-05-24T02:43:30;12.30;99.90
50067;DHT22;35952;52.524;13.340;2023-05-24T02:45:55;12.10;99.90
50067;DHT22;35952;52.524;13.340;2023-05-24T02:48:22;12.10;99.90
50067;DHT22;35952;52.524;13.340;2023-05-24T02:50:47;12.20;99.90
50067;DHT22;35952;52.524;13.340;2023-05-24T02:53:13;12.30;99.90
50067;DHT22;35952;52.524;13.340;2023-05-24T02:55:38;12.20;99.90
50067;DHT22;35952;52.524;13.340;2023-05-24T02:58:04;12.20;99.90
50067;DHT22;35952;52.524;13.340;2023-05-24T03:00:30;12.10;99.90
50067;DHT22;35952;52.524;13.340;2023-05-24T03:02:56;12.10;99.90
50067;DHT22;35952;52.524;13.340;2023-05-24T03:05:24;12.10;99.90
50067;DHT22;35952;52.524;13.340;2023-05-24T03:07:50;12.00;99.90
50067;DHT22;35952;52.524;13.340;2023-05-24T03:10:15;12.00;99.90
50067;DHT22;35952;52.524;13.340;2023-05-24T03:12:41;12.10;99.90
50067;DHT22;35952;52.524;13.340;2023-05-24T03:15:07;12.10;99.90
50067;DHT22;35952;52.524;13.340;2023-05-24T03:17:33;12.00;99.90
50067;DHT22;35952;52.524;13.340;2023-05-24T03:19:58;11.90;99.90
50067;DHT22;35952;52.524;13.340;2023-05-24T03:22:24;11.90;99.90
50067;DHT22;35952;52.524;13.340;2023-05-24T03:24:49;11.90;99.90
50067;DHT22;35952;52.524;13.340;2023-05-24T03:27:15;12.00;99.90
50067;DHT22;35952;52.524;13.340;2023-05-24T03:29:40;12.00;99.90
50067;DHT22;35952;52.524;13.340;2023-05-24T03:32:06;12.10;99.90
50067;DHT22;35952;52.524;13.340;2023-05-24T03:34:31;12.20;99.90
50067;DHT22;35952;52.524;13.340;2023-05-24T03:36:56;12.10;99.90
50067;DHT22;35952;52.524;13.340;2023-05-24T03:39:22;12.10;99.90
50067;DHT22;35952;52.524;13.340;2023-05-24T03:41:48;12.10;99.90
50067;DHT22;35952;52.524;13.340;2023-05-24T03:44:13;12.20;99.90
50067;DHT22;35952;52.524;13.340;2023-05-24T03:46:39;12.20;99.90
50067;DHT22;35952;52.524;13.340;2023-05-24T03:49:05;12.20;99.90
50067;DHT22;35952;52.524;13.340;2023-05-24T03:51:31;12.10;99.90
50067;DHT22;35952;52.524;13.340;2023-05-24T03:53:57;12.10;99.90
50067;DHT22;35952;52.524;13.340;2023-05-24T03:56:24;12.10;99.90
50067;DHT22;35952;52.524;13.340;2023-05-24T03:58:51;12.10;99.90
50067;DHT22;35952;52.524;13.340;2023-05-24T04:01:17;12.10;99.90
50067;DHT22;35952;52.524;13.340;2023-05-24T04:03:42;12.20;99.90
50067;DHT22;35952;52.524;13.340;2023-05-24T04:06:10;12.10;99.90
50067;DHT22;35952;52.524;13.340;2023-05-24T04:08:36;12.20;99.90
50067;DHT22;35952;52.524;13.340;2023-05-24T04:11:02;12.20;99.90
50067;DHT22;35952;52.524;13.340;2023-05-24T04:13:27;12.20;99.90
50067;DHT22;35952;52.524;13.340;2023-05-24T04:15:53;12.00;99.90
50067;DHT22;35952;52.524;13.340;2023-05-24T04:18:20;12.20;99.90
50067;DHT22;35952;52.524;13.340;2023-05-24T04:20:46;12.30;99.90
50067;DHT22;35952;52.524;13.340;2023-05-24T04:23:12;12.30;99.90
50067;DHT22;35952;52.524;13.340;2023-05-24T04:25:37;12.20;99.90
50067;DHT22;35952;52.524;13.340;2023-05-24T04:28:03;12.30;99.90
50067;DHT22;35952;52.524;13.340;2023-05-24T04:30:29;12.30;99.90
50067;DHT22;35952;52.524;13.340;2023-05-24T04:32:55;12.30;99.90
50067;DHT22;35952;52.524;13.340;2023-05-24T04:35:22;12.20;99.90
50067;DHT22;35952;52.524;13.340;2023-05-24T04:37:48;12.20;99.90
50067;DHT22;35952;52.524;13.340;2023-05-24T04:40:14;12.20;99.90
50067;DHT22;35952;52.524;13.340;2023-05-24T04:42:47;12.10;99.90
50067;DHT22;35952;52.524;13.340;2023-05-24T04:45:13;12.20;99.90
50067;DHT22;35952;52.524;13.340;2023-05-24T04:47:39;12.30;99.90
50067;DHT22;35952;52.524;13.340;2023-05-24T04:50:05;12.30;99.90
50067;DHT22;35952;52.524;13.340;2023-05-24T04:52:31;12.30;99.90
50067;DHT22;35952;52.524;13.340;2023-05-24T04:54:57;12.20;99.90
50067;DHT22;35952;52.524;13.340;2023-05-24T04:57:23;12.30;99.90
50067;DHT22;35952;52.524;13.340;2023-05-24T04:59:48;12.20;99.90
50067;DHT22;35952;52.524;13.340;2023-05-24T05:02:14;12.20;99.90
50067;DHT22;35952;52.524;13.340;2023-05-24T05:04:39;12.20;99.90
50067;DHT22;35952;52.524;13.340;2023-05-24T05:07:05;12.20;99.90
50067;DHT22;35952;52.524;13.340;2023-05-24T05:09:31;12.20;99.90
50067;DHT22;35952;52.524;13.340;2023-05-24T05:11:56;12.20;99.90
50067;DHT22;35952;52.524;13.340;2023-05-24T05:14:22;12.20;99.90
50067;DHT22;35952;52.524;13.340;2023-05-24T05:16:48;12.40;99.90
50067;DHT22;35952;52.524;13.340;2023-05-24T05:19:13;12.30;99.90
50067;DHT22;35952;52.524;13.340;2023-05-24T05:21:40;12.40;99.90
50067;DHT22;35952;52.524;13.340;2023-05-24T05:24:05;12.50;99.90
50067;DHT22;35952;52.524;13.340;2023-05-24T05:26:31;12.40;99.90
50067;DHT22;35952;52.524;13.340;2023-05-24T05:28:56;12.30;99.90
50067;DHT22;35952;52.524;13.340;2023-05-24T05:31:22;12.20;99.90
50067;DHT22;35952;52.524;13.340;2023-05-24T05:33:48;12.20;99.90
50067;DHT22;35952;52.524;13.340;2023-05-24T05:36:14;12.40;99.90
50067;DHT22;35952;52.524;13.340;2023-05-24T05:38:39;12.50;99.90
50067;DHT22;35952;52.524;13.340;2023-05-24T05:41:05;12.50;99.90
50067;DHT22;35952;52.524;13.340;2023-05-24T05:43:31;12.60;99.90
50067;DHT22;35952;52.524;13.340;2023-05-24T05:45:57;12.60;99.90
50067;DHT22;35952;52.524;13.340;2023-05-24T05:48:22;12.60;99.90
50067;DHT22;35952;52.524;13.340;2023-05-24T05:50:47;12.50;99.90
50067;DHT22;35952;52.524;13.340;2023-05-24T05:53:14;12.40;99.90
50067;DHT22;35952;52.524;13.340;2023-05-24T05:55:40;12.40;99.90
50067;DHT22;35952;52.524;13.340;2023-05-24T05:58:06;12.30;99.90
50067;DHT22;35952;52.524;13.340;2023-05-24T06:00:31;12.30;99.90
50067;DHT22;35952;52.524;13.340;2023-05-24T06:02:57;12.30;99.90
50067;DHT22;35952;52.524;13.340;2023-05-24T06:05:22;12.30;99.90
50067;DHT22;35952;52.524;13.340;2023-05-24T06:07:48;12.40;99.90
50067;DHT22;35952;52.524;13.340;2023-05-24T06:10:13;12.60;99.90
50067;DHT22;35952;52.524;13.340;2023-05-24T06:12:39;12.60;99.90
50067;DHT22;35952;52.524;13.340;2023-05-24T06:15:06;12.70;99.90
50067;DHT22;35952;52.524;13.340;2023-05-24T06:17:32;12.70;99.90
50067;DHT22;35952;52.524;13.340;2023-05-24T06:19:58;12.80;99.90
50067;DHT22;35952;52.524;13.340;2023-05-24T06:22:24;12.80;99.90
50067;DHT22;35952;52.524;13.340;2023-05-24T06:24:52;12.90;99.90
50067;DHT22;35952;52.524;13.340;2023-05-24T06:27:18;13.00;99.90
50067;DHT22;35952;52.524;13.340;2023-05-24T06:29:43;13.00;99.90
50067;DHT22;35952;52.524;13.340;2023-05-24T06:32:09;13.10;99.90
50067;DHT22;35952;52.524;13.340;2023-05-24T06:34:34;13.10;99.90
50067;DHT22;35952;52.524;13.340;2023-05-24T06:37:00;13.10;99.90
50067;DHT22;35952;52.524;13.340;2023-05-24T06:39:27;13.10;99.90
50067;DHT22;35952;52.524;13.340;2023-05-24T06:41:53;13.10;99.90
50067;DHT22;35952;52.524;13.340;2023-05-24T06:44:18;13.10;99.90
50067;DHT22;35952;52.524;13.340;2023-05-24T06:46:44;13.20;99.90
50067;DHT22;35952;52.524;13.340;2023-05-24T06:49:11;13.20;99.90
50067;DHT22;35952;52.524;13.340;2023-05-24T06:51:36;13.30;99.90
50067;DHT22;35952;52.524;13.340;2023-05-24T06:54:02;13.40;99.90
50067;DHT22;35952;52.524;13.340;2023-05-24T06:56:28;13.30;99.90
50067;DHT22;35952;52.524;13.340;2023-05-24T06:58:54;13.30;99.90
50067;DHT22;35952;52.524;13.340;2023-05-24T07:01:20;13.30;99.90
50067;DHT22;35952;52.524;13.340;2023-05-24T07:03:46;13.20;99.90
50067;DHT22;35952;52.524;13.340;2023-05-24T07:06:12;13.10;99.90
50067;DHT22;35952;52.524;13.340;2023-05-24T07:08:39;13.20;99.90
50067;DHT22;35952;52.524;13.340;2023-05-24T07:11:06;13.20;99.90
50067;DHT22;35952;52.524;13.340;2023-05-24T07:13:32;13.30;99.90
50067;DHT22;35952;52.524;13.340;2023-05-24T07:15:57;13.30;99.90
50067;DHT22;35952;52.524;13.340;2023-05-24T07:18:23;13.30;99.90
50067;DHT22;35952;52.524;13.340;2023-05-24T07:20:48;13.30;99.90
50067;DHT22;35952;52.524;13.340;2023-05-24T07:23:14;13.40;99.90
50067;DHT22;35952;52.524;13.340;2023-05-24T07:25:39;13.40;99.90
50067;DHT22;35952;52.524;13.340;2023-05-24T07:28:05;13.50;99.90
50067;DHT22;35952;52.524;13.340;2023-05-24T07:30:31;13.60;99.90
50067;DHT22;35952;52.524;13.340;2023-05-24T07:32:56;13.60;99.90
50067;DHT22;35952;52.524;13.340;2023-05-24T07:35:22;13.60;99.90
50067;DHT22;35952;52.524;13.340;2023-05-24T07:37:48;13.70;99.90
50067;DHT22;35952;52.524;13.340;2023-05-24T07:40:13;13.60;99.90
50067;DHT22;35952;52.524;13.340;2023-05-24T07:42:39;13.50;99.90
50067;DHT22;35952;52.524;13.340;2023-05-24T07:45:06;13.40;99.90
50067;DHT22;35952;52.524;13.340;2023-05-24T07:47:33;13.40;99.90
50067;DHT22;35952;52.524;13.340;2023-05-24T07:49:59;13.40;99.90
50067;DHT22;35952;52.524;13.340;2023-05-24T07:52:24;13.60;99.90
50067;DHT22;35952;52.524;13.340;2023-05-24T07:54:50;13.70;99.90
50067;DHT22;35952;52.524;13.340;2023-05-24T07:57:18;13.70;99.90
50067;DHT22;35952;52.524;13.340;2023-05-24T07:59:44;13.70;99.90
50067;DHT22;35952;52.524;13.340;2023-05-24T08:02:09;13.90;99.90
50067;DHT22;35952;52.524;13.340;2023-05-24T08:04:36;13.80;99.90
50067;DHT22;35952;52.524;13.340;2023-05-24T08:07:01;13.80;99.90
50067;DHT22;35952;52.524;13.340;2023-05-24T08:09:28;13.80;99.90
50067;DHT22;35952;52.524;13.340;2023-05-24T08:11:55;13.80;99.90
50067;DHT22;35952;52.524;13.340;2023-05-24T08:14:21;13.80;99.90
50067;DHT22;35952;52.524;13.340;2023-05-24T08:16:47;13.90;99.90
50067;DHT22;35952;52.524;13.340;2023-05-24T08:19:13;14.00;99.90
50067;DHT22;35952;52.524;13.340;2023-05-24T08:21:38;14.10;99.90
50067;DHT22;35952;52.524;13.340;2023-05-24T08:24:06;14.10;99.90
50067;DHT22;35952;52.524;13.340;2023-05-24T08:26:31;14.20;99.90
50067;DHT22;35952;52.524;13.340;2023-05-24T08:28:57;14.20;99.90
50067;DHT22;35952;52.524;13.340;2023-05-24T08:31:22;14.20;99.90
50067;DHT22;35952;52.524;13.340;2023-05-24T08:33:48;14.30;99.90
50067;DHT22;35952;52.524;13.340;2023-05-24T08:36:16;14.30;99.90
50067;DHT22;35952;52.524;13.340;2023-05-24T08:38:41;14.20;99.90
50067;DHT22;35952;52.524;13.340;2023-05-24T08:41:09;14.00;99.90
50067;DHT22;35952;52.524;13.340;2023-05-24T08:43:37;13.90;99.90
50067;DHT22;35952;52.524;13.340;2023-05-24T08:46:03;13.70;99.90
50067;DHT22;35952;52.524;13.340;2023-05-24T08:48:29;13.70;99.90
50067;DHT22;35952;52.524;13.340;2023-05-24T08:50:56;13.70;99.90
50067;DHT22;35952;52.524;13.340;2023-05-24T08:53:23;13.80;99.90
50067;DHT22;35952;52.524;13.340;2023-05-24T08:55:49;13.90;99.90
50067;DHT22;35952;52.524;13.340;2023-05-24T08:58:17;14.00;99.90
50067;DHT22;35952;52.524;13.340;2023-05-24T09:00:43;14.10;99.90
50067;DHT22;35952;52.524;13.340;2023-05-24T09:03:10;14.20;99.90
50067;DHT22;35952;52.524;13.340;2023-05-24T09:05:36;14.30;99.90
50067;DHT22;35952;52.524;13.340;2023-05-24T09:08:02;14.30;99.90
50067;DHT22;35952;52.524;13.340;2023-05-24T09:10:28;14.40;99.90
50067;DHT22;35952;52.524;13.340;2023-05-24T09:12:57;14.30;99.90
50067;DHT22;35952;52.524;13.340;2023-05-24T09:15:26;14.40;99.90
50067;DHT22;35952;52.524;13.340;2023-05-24T09:17:52;14.50;99.90
50067;DHT22;35952;52.524;13.340;2023-05-24T09:20:19;14.50;99.90
50067;DHT22;35952;52.524;13.340;2023-05-24T09:22:49;14.60;99.90
50067;DHT22;35952;52.524;13.340;2023-05-24T09:25:16;14.70;99.90
50067;DHT22;35952;52.524;13.340;2023-05-24T09:27:47;14.70;99.90
50067;DHT22;35952;52.524;13.340;2023-05-24T09:30:14;14.70;99.90
50067;DHT22;35952;52.524;13.340;2023-05-24T09:32:39;14.60;99.90
50067;DHT22;35952;52.524;13.340;2023-05-24T09:35:08;14.60;99.90
50067;DHT22;35952;52.524;13.340;2023-05-24T09:37:35;14.60;99.90
50067;DHT22;35952;52.524;13.340;2023-05-24T09:40:00;14.60;99.90
50067;DHT22;35952;52.524;13.340;2023-05-24T09:42:27;14.50;99.90
50067;DHT22;35952;52.524;13.340;2023-05-24T09:45:06;14.50;99.90
50067;DHT22;35952;52.524;13.340;2023-05-24T09:47:36;14.60;99.90
50067;DHT22;35952;52.524;13.340;2023-05-24T09:50:03;14.70;99.90
50067;DHT22;35952;52.524;13.340;2023-05-24T09:52:29;14.70;99.90
50067;DHT22;35952;52.524;13.340;2023-05-24T09:54:55;14.70;99.90
50067;DHT22;35952;52.524;13.340;2023-05-24T09:57:21;14.60;99.90
50067;DHT22;35952;52.524;13.340;2023-05-24T09:59:50;14.60;99.90
50067;DHT22;35952;52.524;13.340;2023-05-24T10:02:17;14.60;99.90
50067;DHT22;35952;52.524;13.340;2023-05-24T10:04:45;14.40;99.90
50067;DHT22;35952;52.524;13.340;2023-05-24T10:07:12;14.40;99.90
50067;DHT22;35952;52.524;13.340;2023-05-24T10:09:37;14.30;99.90
50067;DHT22;35952;52.524;13.340;2023-05-24T10:12:05;14.20;99.90
50067;DHT22;35952;52.524;13.340;2023-05-24T10:14:32;14.20;99.90
50067;DHT22;35952;52.524;13.340;2023-05-24T10:17:06;14.20;99.90
50067;DHT22;35952;52.524;13.340;2023-05-24T10:19:36;14.30;99.90
50067;DHT22;35952;52.524;13.340;2023-05-24T10:22:05;14.40;99.90
50067;DHT22;35952;52.524;13.340;2023-05-24T10:24:37;14.70;99.90
50067;DHT22;35952;52.524;13.340;2023-05-24T10:27:07;14.80;99.90
50067;DHT22;35952;52.524;13.340;2023-05-24T10:29:45;14.90;99.90
50067;DHT22;35952;52.524;13.340;2023-05-24T10:32:13;14.90;99.90
50067;DHT22;35952;52.524;13.340;2023-05-24T10:34:41;15.20;99.90
50067;DHT22;35952;52.524;13.340;2023-05-24T10:37:07;15.90;99.90
50067;DHT22;35952;52.524;13.340;2023-05-24T10:39:33;16.50;99.90
50067;DHT22;35952;52.524;13.340;2023-05-24T10:42:06;17.00;99.90
50067;DHT22;35952;52.524;13.340;2023-05-24T10:44:32;17.10;99.90
50067;DHT22;35952;52.524;13.340;2023-05-24T10:47:11;17.20;99.90
50067;DHT22;35952;52.524;13.340;2023-05-24T10:49:38;17.30;99.90
50067;DHT22;35952;52.524;13.340;2023-05-24T10:52:11;17.50;99.10
50067;DHT22;35952;52.524;13.340;2023-05-24T10:54:37;17.50;96.50
50067;DHT22;35952;52.524;13.340;2023-05-24T10:57:05;16.90;97.10
50067;DHT22;35952;52.524;13.340;2023-05-24T10:59:36;16.80;97.50
50067;DHT22;35952;52.524;13.340;2023-05-24T11:02:05;16.70;98.20
50067;DHT22;35952;52.524;13.340;2023-05-24T11:04:36;16.50;98.50
50067;DHT22;35952;52.524;13.340;2023-05-24T11:07:04;16.20;99.40
50067;DHT22;35952;52.524;13.340;2023-05-24T11:09:30;16.00;99.80
50067;DHT22;35952;52.524;13.340;2023-05-24T11:12:01;15.70;99.80
50067;DHT22;35952;52.524;13.340;2023-05-24T11:14:29;15.70;99.90
50067;DHT22;35952;52.524;13.340;2023-05-24T11:16:56;15.60;99.80
50067;DHT22;35952;52.524;13.340;2023-05-24T11:19:23;15.50;99.90
50067;DHT22;35952;52.524;13.340;2023-05-24T11:21:51;15.20;99.90
50067;DHT22;35952;52.524;13.340;2023-05-24T11:24:18;15.30;99.90
50067;DHT22;35952;52.524;13.340;2023-05-24T11:26:45;15.20;99.90
50067;DHT22;35952;52.524;13.340;2023-05-24T11:29:14;15.30;99.90
50067;DHT22;35952;52.524;13.340;2023-05-24T11:31:50;15.40;99.90
50067;DHT22;35952;52.524;13.340;2023-05-24T11:34:17;15.50;99.90
50067;DHT22;35952;52.524;13.340;2023-05-24T11:36:43;15.50;99.90
50067;DHT22;35952;52.524;13.340;2023-05-24T11:39:09;15.70;99.90
50067;DHT22;35952;52.524;13.340;2023-05-24T11:41:37;16.00;99.40
50067;DHT22;35952;52.524;13.340;2023-05-24T11:44:03;16.40;97.90
50067;DHT22;35952;52.524;13.340;2023-05-24T11:46:29;16.50;96.30
50067;DHT22;35952;52.524;13.340;2023-05-24T11:48:56;17.10;95.50
50067;DHT22;35952;52.524;13.340;2023-05-24T11:51:29;17.80;93.10
50067;DHT22;35952;52.524;13.340;2023-05-24T11:53:56;18.20;92.50
50067;DHT22;35952;52.524;13.340;2023-05-24T11:56:21;18.40;90.90
50067;DHT22;35952;52.524;13.340;2023-05-24T11:58:48;18.30;90.20
50067;DHT22;35952;52.524;13.340;2023-05-24T12:01:25;18.10;90.60
50067;DHT22;35952;52.524;13.340;2023-05-24T12:03:51;17.80;91.20
50067;DHT22;35952;52.524;13.340;2023-05-24T12:06:18;17.70;92.60
50067;DHT22;35952;52.524;13.340;2023-05-24T12:08:43;17.60;91.90
50067;DHT22;35952;52.524;13.340;2023-05-24T12:11:09;17.20;93.00
50067;DHT22;35952;52.524;13.340;2023-05-24T12:13:35;17.00;93.20
50067;DHT22;35952;52.524;13.340;2023-05-24T12:16:01;16.80;94.20
50067;DHT22;35952;52.524;13.340;2023-05-24T12:18:28;16.60;94.20
50067;DHT22;35952;52.524;13.340;2023-05-24T12:20:53;16.40;94.30
50067;DHT22;35952;52.524;13.340;2023-05-24T12:23:21;16.40;95.70
50067;DHT22;35952;52.524;13.340;2023-05-24T12:25:47;16.30;95.90
50067;DHT22;35952;52.524;13.340;2023-05-24T12:28:12;16.30;96.80
50067;DHT22;35952;52.524;13.340;2023-05-24T12:30:38;16.30;96.80
50067;DHT22;35952;52.524;13.340;2023-05-24T12:33:11;16.40;94.80
50067;DHT22;35952;52.524;13.340;2023-05-24T12:35:39;16.40;94.60
50067;DHT22;35952;52.524;13.340;2023-05-24T12:38:07;16.50;92.90
50067;DHT22;35952;52.524;13.340;2023-05-24T12:40:33;16.50;92.80
50067;DHT22;35952;52.524;13.340;2023-05-24T12:42:58;16.60;93.40
50067;DHT22;35952;52.524;13.340;2023-05-24T12:45:25;16.70;92.50
50067;DHT22;35952;52.524;13.340;2023-05-24T12:47:53;16.80;91.60
50067;DHT22;35952;52.524;13.340;2023-05-24T12:50:21;17.00;92.10
50067;DHT22;35952;52.524;13.340;2023-05-24T12:52:47;17.20;92.10
50067;DHT22;35952;52.524;13.340;2023-05-24T12:55:17;17.50;90.40
50067;DHT22;35952;52.524;13.340;2023-05-24T12:57:44;17.50;90.70
50067;DHT22;35952;52.524;13.340;2023-05-24T13:00:17;17.60;89.70
50067;DHT22;35952;52.524;13.340;2023-05-24T13:02:44;17.50;89.80
50067;DHT22;35952;52.524;13.340;2023-05-24T13:05:09;17.70;86.80
50067;DHT22;35952;52.524;13.340;2023-05-24T13:07:35;17.40;89.30
50067;DHT22;35952;52.524;13.340;2023-05-24T13:10:01;17.50;90.10
50067;DHT22;35952;52.524;13.340;2023-05-24T13:12:27;17.60;90.60
50067;DHT22;35952;52.524;13.340;2023-05-24T13:14:53;17.60;91.20
50067;DHT22;35952;52.524;13.340;2023-05-24T13:17:18;17.40;91.30
50067;DHT22;35952;52.524;13.340;2023-05-24T13:19:44;17.40;92.30
50067;DHT22;35952;52.524;13.340;2023-05-24T13:22:11;17.40;92.50
50067;DHT22;35952;52.524;13.340;2023-05-24T13:24:37;17.50;92.00
50067;DHT22;35952;52.524;13.340;2023-05-24T13:27:02;17.60;92.10
50067;DHT22;35952;52.524;13.340;2023-05-24T13:29:29;17.70;90.80
50067;DHT22;35952;52.524;13.340;2023-05-24T13:31:54;17.70;90.50
50067;DHT22;35952;52.524;13.340;2023-05-24T13:34:21;17.80;90.20
50067;DHT22;35952;52.524;13.340;2023-05-24T13:36:49;17.90;89.70
50067;DHT22;35952;52.524;13.340;2023-05-24T13:39:14;17.90;87.00
50067;DHT22;35952;52.524;13.340;2023-05-24T13:41:40;17.80;87.30
50067;DHT22;35952;52.524;13.340;2023-05-24T13:44:06;17.70;88.60
50067;DHT22;35952;52.524;13.340;2023-05-24T13:46:31;17.80;87.70
50067;DHT22;35952;52.524;13.340;2023-05-24T13:48:58;17.90;87.50
50067;DHT22;35952;52.524;13.340;2023-05-24T13:51:24;18.40;87.20
50067;DHT22;35952;52.524;13.340;2023-05-24T13:53:51;19.10;87.20
50067;DHT22;35952;52.524;13.340;2023-05-24T13:56:17;21.10;79.10
50067;DHT22;35952;52.524;13.340;2023-05-24T13:58:43;23.20;69.00
50067;DHT22;35952;52.524;13.340;2023-05-24T14:01:09;24.10;58.10
50067;DHT22;35952;52.524;13.340;2023-05-24T14:03:35;24.40;56.50
50067;DHT22;35952;52.524;13.340;2023-05-24T14:06:00;24.10;56.70
50067;DHT22;35952;52.524;13.340;2023-05-24T14:08:26;24.60;54.30
50067;DHT22;35952;52.524;13.340;2023-05-24T14:10:52;24.10;54.50
50067;DHT22;35952;52.524;13.340;2023-05-24T14:13:18;24.70;53.70
50067;DHT22;35952;52.524;13.340;2023-05-24T14:15:43;24.20;54.10
50067;DHT22;35952;52.524;13.340;2023-05-24T14:18:11;23.90;54.50
50067;DHT22;35952;52.524;13.340;2023-05-24T14:20:37;22.40;56.70
50067;DHT22;35952;52.524;13.340;2023-05-24T14:23:05;21.70;58.70
50067;DHT22;35952;52.524;13.340;2023-05-24T14:25:31;21.10;60.50
50067;DHT22;35952;52.524;13.340;2023-05-24T14:27:57;20.80;61.60
50067;DHT22;35952;52.524;13.340;2023-05-24T14:30:22;20.50;62.80
50067;DHT22;35952;52.524;13.340;2023-05-24T14:32:48;20.30;63.30
50067;DHT22;35952;52.524;13.340;2023-05-24T14:35:14;19.80;64.00
50067;DHT22;35952;52.524;13.340;2023-05-24T14:37:39;19.40;65.30
50067;DHT22;35952;52.524;13.340;2023-05-24T14:40:05;19.00;66.60
50067;DHT22;35952;52.524;13.340;2023-05-24T14:42:31;18.90;66.10
50067;DHT22;35952;52.524;13.340;2023-05-24T14:44:56;18.90;67.60
50067;DHT22;35952;52.524;13.340;2023-05-24T14:47:22;18.80;68.20
50067;DHT22;35952;52.524;13.340;2023-05-24T14:49:47;18.70;69.00
50067;DHT22;35952;52.524;13.340;2023-05-24T14:52:13;18.70;69.80
50067;DHT22;35952;52.524;13.340;2023-05-24T14:54:38;18.50;69.90
50067;DHT22;35952;52.524;13.340;2023-05-24T14:57:04;18.20;70.50
50067;DHT22;35952;52.524;13.340;2023-05-24T14:59:32;18.20;71.50
50067;DHT22;35952;52.524;13.340;2023-05-24T15:01:57;18.10;72.40
50067;DHT22;35952;52.524;13.340;2023-05-24T15:04:23;17.90;73.00
50067;DHT22;35952;52.524;13.340;2023-05-24T15:06:49;17.90;71.90
50067;DHT22;35952;52.524;13.340;2023-05-24T15:09:15;17.50;72.20
50067;DHT22;35952;52.524;13.340;2023-05-24T15:11:41;17.50;75.10
50067;DHT22;35952;52.524;13.340;2023-05-24T15:14:06;17.80;73.60
50067;DHT22;35952;52.524;13.340;2023-05-24T15:16:33;18.00;73.40
50067;DHT22;35952;52.524;13.340;2023-05-24T15:18:58;18.10;72.40
50067;DHT22;35952;52.524;13.340;2023-05-24T15:21:24;18.10;73.00